createdAt,value
2019-03-31T00:01:56.816Z,66.32
2019-03-31T00:04:27.670Z,66.75
2019-03-31T00:07:00.142Z,66.35
2019-03-31T00:09:30.963Z,66.51
2019-03-31T00:12:03.071Z,66.34
2019-03-31T00:14:34.239Z,66.11
2019-03-31T00:17:05.261Z,66.86
2019-03-31T00:19:36.383Z,67.02
2019-03-31T00:22:07.239Z,67.12
2019-03-31T00:24:38.089Z,66.91
2019-03-31T00:27:09.238Z,67.07
2019-03-31T00:29:40.255Z,66.98
2019-03-31T00:32:11.068Z,67.02
2019-03-31T00:34:42.159Z,67.38
2019-03-31T00:37:12.971Z,67.52
2019-03-31T00:39:45.021Z,68.54
2019-03-31T00:42:16.250Z,69.11
2019-03-31T00:44:48.432Z,68.96
2019-03-31T00:47:19.601Z,68.91
2019-03-31T00:49:51.202Z,68.95
2019-03-31T00:52:22.052Z,68.90
2019-03-31T00:54:53.008Z,68.58
2019-03-31T00:57:24.121Z,67.99
2019-03-31T00:59:55.101Z,67.99
2019-03-31T01:02:29.343Z,68.00
2019-03-31T01:05:00.657Z,67.61
2019-03-31T01:07:33.027Z,67.24
2019-03-31T01:10:05.134Z,67.37
2019-03-31T01:12:37.018Z,67.09
2019-03-31T01:15:13.807Z,67.08
2019-03-31T01:17:45.088Z,66.90
2019-03-31T01:20:16.537Z,66.76
2019-03-31T01:22:50.140Z,66.71
2019-03-31T01:25:21.020Z,66.57
2019-03-31T01:27:53.291Z,66.42
2019-03-31T01:30:25.038Z,66.57
2019-03-31T01:32:57.425Z,66.62
2019-03-31T01:35:28.862Z,66.66
2019-03-31T01:38:02.342Z,66.70
2019-03-31T01:40:33.256Z,67.01
2019-03-31T01:43:06.383Z,67.04
2019-03-31T01:45:37.570Z,67.41
2019-03-31T01:48:08.697Z,67.41
2019-03-31T01:50:39.615Z,67.04
2019-03-31T01:53:10.419Z,67.21
2019-03-31T01:55:41.363Z,67.51
2019-03-31T01:58:12.276Z,67.82
2019-03-31T02:00:46.678Z,68.10
2019-03-31T02:03:17.687Z,68.53
2019-03-31T02:05:48.580Z,69.23
2019-03-31T02:08:19.450Z,69.36
2019-03-31T02:10:50.595Z,69.43
2019-03-31T02:13:21.544Z,69.37
2019-03-31T02:15:52.858Z,69.09
2019-03-31T02:18:23.786Z,68.98
2019-03-31T02:20:58.361Z,68.72
2019-03-31T02:23:29.296Z,68.40
2019-03-31T02:26:00.420Z,68.20
2019-03-31T02:28:31.237Z,67.87
2019-03-31T02:31:03.085Z,67.70
2019-03-31T02:33:34.074Z,67.77
2019-03-31T02:36:05.831Z,68.34
2019-03-31T02:38:36.670Z,68.34
2019-03-31T02:41:07.524Z,69.04
2019-03-31T02:43:38.661Z,69.94
2019-03-31T02:46:09.482Z,70.19
2019-03-31T02:48:40.492Z,70.64
2019-03-31T02:51:11.379Z,70.75
2019-03-31T02:53:43.516Z,71.03
2019-03-31T02:56:17.114Z,71.03
2019-03-31T02:58:48.777Z,71.84
2019-03-31T03:01:20.593Z,71.76
2019-03-31T03:03:53.371Z,71.56
2019-03-31T03:06:28.368Z,71.47
2019-03-31T03:09:02.232Z,71.02
2019-03-31T03:11:35.002Z,70.63
2019-03-31T03:14:07.048Z,70.54
2019-03-31T03:16:38.142Z,70.51
2019-03-31T03:19:08.974Z,70.89
2019-03-31T03:21:39.822Z,71.39
2019-03-31T03:24:10.695Z,71.96
2019-03-31T03:26:41.551Z,72.13
2019-03-31T03:29:12.420Z,72.40
2019-03-31T03:31:43.701Z,72.73
2019-03-31T03:34:14.606Z,72.91
2019-03-31T03:36:45.423Z,72.99
2019-03-31T03:39:16.605Z,72.70
2019-03-31T03:41:47.443Z,72.77
2019-03-31T03:44:19.975Z,72.62
2019-03-31T03:46:50.831Z,72.48
2019-03-31T03:49:21.674Z,72.48
2019-03-31T03:51:52.526Z,72.24
2019-03-31T03:54:23.664Z,72.15
2019-03-31T03:56:55.101Z,72.36
2019-03-31T03:59:27.309Z,72.20
2019-03-31T04:01:59.320Z,72.16
2019-03-31T04:04:30.171Z,72.34
2019-03-31T04:07:01.442Z,72.42
2019-03-31T04:09:32.380Z,72.85
2019-03-31T04:12:03.767Z,74.42
2019-03-31T04:14:34.631Z,74.42
2019-03-31T04:17:05.768Z,74.31
2019-03-31T04:19:36.683Z,74.16
2019-03-31T04:22:07.524Z,73.76
2019-03-31T04:24:38.639Z,73.49
2019-03-31T04:27:09.888Z,73.70
2019-03-31T04:29:40.719Z,74.02
2019-03-31T04:32:11.541Z,74.19
2019-03-31T04:34:42.664Z,74.53
2019-03-31T04:37:13.527Z,74.46
2019-03-31T04:39:44.434Z,74.62
2019-03-31T04:42:15.274Z,74.70
2019-03-31T04:44:46.543Z,75.02
2019-03-31T04:47:17.386Z,75.11
2019-03-31T04:49:48.776Z,75.34
2019-03-31T04:52:19.912Z,74.67
2019-03-31T04:54:51.933Z,74.67
2019-03-31T04:57:22.805Z,74.88
2019-03-31T04:59:54.637Z,74.55
2019-03-31T05:02:27.352Z,74.29
2019-03-31T05:04:59.490Z,74.28
2019-03-31T05:07:30.507Z,74.19
2019-03-31T05:10:01.367Z,73.74
2019-03-31T05:12:32.483Z,73.07
2019-03-31T05:15:03.331Z,72.14
2019-03-31T05:17:35.979Z,71.71
2019-03-31T05:20:07.456Z,70.15
2019-03-31T05:22:38.320Z,69.76
2019-03-31T05:25:09.164Z,69.03
2019-03-31T05:27:40.009Z,68.35
2019-03-31T05:30:11.061Z,68.25
2019-03-31T05:32:42.199Z,67.16
2019-03-31T05:35:13.291Z,66.81
2019-03-31T05:37:51.130Z,66.74
2019-03-31T05:40:17.432Z,65.72
2019-03-31T05:42:48.596Z,65.49
2019-03-31T05:45:19.475Z,64.96
2019-03-31T05:47:51.632Z,64.50
2019-03-31T05:50:22.727Z,64.12
2019-03-31T05:52:54.383Z,63.64
2019-03-31T05:55:25.261Z,63.64
2019-03-31T05:57:56.143Z,63.50
2019-03-31T06:00:53.896Z,63.15
2019-03-31T06:03:25.037Z,62.97
2019-03-31T06:05:56.104Z,62.75
2019-03-31T06:08:27.268Z,62.80
2019-03-31T06:10:58.612Z,62.56
2019-03-31T06:13:31.139Z,62.26
2019-03-31T06:16:01.959Z,62.05
2019-03-31T06:18:33.576Z,62.09
2019-03-31T06:21:05.602Z,62.06
2019-03-31T06:23:36.441Z,62.58
2019-03-31T06:26:07.423Z,63.24
2019-03-31T06:28:39.461Z,64.52
2019-03-31T06:31:10.634Z,65.67
2019-03-31T06:33:41.478Z,67.96
2019-03-31T06:36:12.623Z,69.78
2019-03-31T06:38:43.440Z,71.67
2019-03-31T06:41:14.367Z,72.02
2019-03-31T06:43:45.273Z,72.54
2019-03-31T06:46:16.474Z,73.32
2019-03-31T06:48:47.333Z,73.48
2019-03-31T06:51:20.720Z,73.65
2019-03-31T06:53:51.695Z,74.79
2019-03-31T06:56:22.579Z,75.63
2019-03-31T06:58:53.728Z,77.00
2019-03-31T07:01:24.882Z,78.55
2019-03-31T07:03:55.728Z,79.55
2019-03-31T07:06:27.381Z,80.26
2019-03-31T07:08:58.511Z,80.52
2019-03-31T07:11:29.797Z,80.87
2019-03-31T07:14:00.715Z,80.69
2019-03-31T07:16:31.593Z,80.76
2019-03-31T07:19:02.739Z,80.61
2019-03-31T07:21:33.791Z,78.86
2019-03-31T07:24:04.626Z,76.72
2019-03-31T07:26:35.971Z,75.77
2019-03-31T07:29:06.835Z,75.08
2019-03-31T07:31:37.927Z,75.37
2019-03-31T07:34:08.806Z,75.09
2019-03-31T07:36:39.860Z,74.98
2019-03-31T07:39:10.939Z,74.91
2019-03-31T07:41:42.276Z,74.65
2019-03-31T07:44:15.311Z,74.68
2019-03-31T07:46:46.187Z,74.80
2019-03-31T07:49:17.046Z,74.80
2019-03-31T07:51:49.887Z,74.87
2019-03-31T07:54:21.081Z,74.56
2019-03-31T07:56:53.162Z,74.13
2019-03-31T07:59:24.371Z,74.23
2019-03-31T08:01:55.164Z,73.95
2019-03-31T08:04:26.538Z,74.40
2019-03-31T08:06:57.733Z,74.69
2019-03-31T08:09:28.583Z,74.90
2019-03-31T08:11:59.630Z,74.64
2019-03-31T08:14:30.790Z,74.40
2019-03-31T08:17:01.994Z,74.16
2019-03-31T08:19:33.545Z,73.46
2019-03-31T08:22:04.695Z,73.69
2019-03-31T08:24:44.573Z,73.75
2019-03-31T08:27:16.536Z,73.19
2019-03-31T08:29:59.599Z,72.39
2019-03-31T08:32:20.902Z,72.34
2019-03-31T08:34:52.121Z,71.60
2019-03-31T08:37:22.977Z,71.63
2019-03-31T08:39:55.793Z,71.74
2019-03-31T08:42:26.680Z,71.45
2019-03-31T08:44:59.061Z,71.24
2019-03-31T08:47:30.319Z,70.98
2019-03-31T08:50:02.656Z,71.01
2019-03-31T08:52:33.931Z,70.67
2019-03-31T08:55:05.039Z,70.49
2019-03-31T08:57:36.025Z,70.27
2019-03-31T09:00:09.906Z,70.23
2019-03-31T09:02:40.876Z,69.89
2019-03-31T09:05:12.395Z,69.33
2019-03-31T09:07:44.690Z,69.69
2019-03-31T09:10:18.390Z,68.93
2019-03-31T09:12:49.516Z,68.42
2019-03-31T09:15:20.563Z,68.12
2019-03-31T09:17:54.195Z,67.92
2019-03-31T09:20:25.244Z,67.59
2019-03-31T09:22:56.424Z,67.23
2019-03-31T09:25:28.633Z,66.98
2019-03-31T09:28:01.096Z,66.35
2019-03-31T09:30:31.992Z,65.39
2019-03-31T09:33:04.466Z,65.39
2019-03-31T09:35:35.389Z,64.62
2019-03-31T09:38:06.579Z,64.14
2019-03-31T09:40:37.424Z,63.21
2019-03-31T09:43:08.432Z,62.88
2019-03-31T09:45:39.580Z,62.40
2019-03-31T09:48:12.632Z,61.91
2019-03-31T09:50:43.459Z,61.65
2019-03-31T09:53:14.593Z,61.56
2019-03-31T09:55:45.800Z,61.55
2019-03-31T09:58:16.689Z,61.28
2019-03-31T10:00:50.881Z,61.10
2019-03-31T10:03:23.036Z,60.21
2019-03-31T10:05:54.195Z,59.92
2019-03-31T10:08:25.439Z,58.52
2019-03-31T10:10:56.535Z,57.31
2019-03-31T10:13:27.416Z,57.93
2019-03-31T10:15:58.671Z,57.64
2019-03-31T10:18:29.681Z,57.37
2019-03-31T10:21:01.015Z,56.96
2019-03-31T10:23:32.181Z,56.26
2019-03-31T10:26:03.314Z,56.64
2019-03-31T10:28:34.286Z,56.79
2019-03-31T10:31:07.124Z,56.30
2019-03-31T10:33:38.001Z,54.32
2019-03-31T10:36:08.935Z,51.64
2019-03-31T10:38:42.361Z,53.34
2019-03-31T10:41:13.583Z,53.08
2019-03-31T10:43:44.725Z,52.90
2019-03-31T10:46:15.872Z,51.21
2019-03-31T10:48:48.328Z,44.89
2019-03-31T10:51:20.784Z,43.36
2019-03-31T10:53:53.380Z,39.50
2019-03-31T10:56:24.417Z,38.49
2019-03-31T10:58:55.581Z,37.94
2019-03-31T11:01:26.797Z,40.85
2019-03-31T11:03:57.993Z,41.81
2019-03-31T11:06:29.160Z,44.71
2019-03-31T11:09:00.403Z,46.12
2019-03-31T11:11:31.772Z,45.88
2019-03-31T11:14:04.417Z,44.70
2019-03-31T11:16:35.567Z,42.51
2019-03-31T11:19:06.633Z,41.46
2019-03-31T11:21:43.037Z,42.31
2019-03-31T11:24:15.856Z,43.51
2019-03-31T11:26:47.027Z,43.68
2019-03-31T11:29:18.161Z,45.49
2019-03-31T11:31:49.151Z,47.48
2019-03-31T11:34:20.353Z,47.69
2019-03-31T11:36:51.517Z,48.95
2019-03-31T11:39:22.436Z,48.95
2019-03-31T11:41:53.736Z,49.57
2019-03-31T11:44:27.552Z,49.14
2019-03-31T11:46:57.426Z,48.28
2019-03-31T11:49:29.430Z,47.95
2019-03-31T11:52:00.937Z,48.37
2019-03-31T11:54:32.140Z,48.79
2019-03-31T11:57:03.541Z,48.22
2019-03-31T11:59:34.548Z,48.88
2019-03-31T12:02:06.755Z,48.45
2019-03-31T12:04:37.673Z,48.37
2019-03-31T12:07:09.606Z,49.16
2019-03-31T12:09:40.797Z,49.16
2019-03-31T12:12:11.828Z,50.78
2019-03-31T12:14:42.733Z,50.42
2019-03-31T12:17:15.733Z,50.22
2019-03-31T12:19:48.804Z,49.70
2019-03-31T12:22:19.652Z,49.70
2019-03-31T12:24:50.511Z,49.97
2019-03-31T12:27:21.393Z,48.90
2019-03-31T12:29:53.869Z,48.72
2019-03-31T12:32:24.924Z,49.21
2019-03-31T12:34:55.880Z,49.39
2019-03-31T12:37:41.283Z,49.49
2019-03-31T12:39:59.788Z,50.48
2019-03-31T12:42:30.647Z,50.46
2019-03-31T12:45:01.859Z,50.43
2019-03-31T12:47:33.238Z,49.85
2019-03-31T12:50:04.651Z,50.42
2019-03-31T12:52:46.186Z,50.30
2019-03-31T12:55:08.525Z,49.58
2019-03-31T12:57:39.480Z,49.51
2019-03-31T13:00:10.528Z,49.78
2019-03-31T13:02:41.644Z,48.72
2019-03-31T13:05:13.729Z,48.96
2019-03-31T13:07:55.693Z,49.04
2019-03-31T13:10:17.786Z,49.08
2019-03-31T13:12:48.666Z,48.91
2019-03-31T13:15:19.911Z,48.29
2019-03-31T13:17:50.751Z,48.06
2019-03-31T13:20:22.019Z,47.29
2019-03-31T13:22:53.148Z,46.89
2019-03-31T13:25:24.334Z,46.15
2019-03-31T13:27:55.543Z,45.93
2019-03-31T13:30:26.734Z,45.54
2019-03-31T13:32:57.694Z,45.10
2019-03-31T13:35:28.846Z,46.33
2019-03-31T13:38:10.484Z,48.10
2019-03-31T13:40:33.436Z,47.92
2019-03-31T13:43:04.785Z,48.24
2019-03-31T13:45:35.714Z,48.38
2019-03-31T13:48:06.876Z,48.13
2019-03-31T13:50:37.913Z,48.95
2019-03-31T13:53:08.741Z,48.72
2019-03-31T13:55:39.853Z,48.34
2019-03-31T13:58:13.222Z,48.51
2019-03-31T14:00:43.732Z,49.00
2019-03-31T14:03:14.885Z,49.08
2019-03-31T14:05:46.698Z,49.41
2019-03-31T14:08:25.518Z,48.94
2019-03-31T14:10:50.882Z,48.40
2019-03-31T14:13:21.918Z,48.88
2019-03-31T14:15:53.080Z,48.11
2019-03-31T14:18:23.947Z,47.57
2019-03-31T14:20:54.888Z,47.88
2019-03-31T14:23:26.075Z,48.07
2019-03-31T14:25:57.003Z,48.12
2019-03-31T14:28:27.997Z,48.47
2019-03-31T14:30:58.847Z,48.43
2019-03-31T14:33:30.062Z,48.39
2019-03-31T14:36:00.976Z,48.61
2019-03-31T14:38:40.048Z,48.20
2019-03-31T14:41:04.504Z,47.71
2019-03-31T14:43:35.636Z,47.29
2019-03-31T14:46:07.182Z,47.53
2019-03-31T14:48:39.101Z,48.06
2019-03-31T14:51:09.975Z,49.57
2019-03-31T14:53:40.854Z,49.64
2019-03-31T14:56:11.727Z,49.33
2019-03-31T14:58:42.720Z,49.23
2019-03-31T15:01:13.552Z,49.23
2019-03-31T15:03:44.446Z,49.27
2019-03-31T15:06:15.837Z,49.83
2019-03-31T15:08:54.172Z,50.02
2019-03-31T15:11:21.951Z,50.21
2019-03-31T15:13:53.853Z,50.32
2019-03-31T15:16:26.856Z,50.45
2019-03-31T15:18:57.994Z,50.00
2019-03-31T15:21:28.839Z,50.45
2019-03-31T15:23:59.947Z,50.35
2019-03-31T15:26:30.842Z,50.05
2019-03-31T15:29:01.671Z,49.68
2019-03-31T15:31:32.805Z,49.54
2019-03-31T15:34:03.900Z,50.04
2019-03-31T15:36:34.852Z,50.24
2019-03-31T15:39:09.304Z,50.07
2019-03-31T15:41:40.943Z,49.76
2019-03-31T15:44:11.841Z,50.16
2019-03-31T15:46:42.765Z,50.28
2019-03-31T15:49:13.882Z,50.22
2019-03-31T15:51:44.742Z,50.57
2019-03-31T15:54:15.888Z,50.69
2019-03-31T15:56:46.926Z,50.65
2019-03-31T15:59:18.134Z,50.78
2019-03-31T16:01:49.301Z,50.92
2019-03-31T16:04:21.465Z,51.17
2019-03-31T16:06:52.531Z,51.15
2019-03-31T16:09:24.215Z,51.15
2019-03-31T16:11:54.890Z,51.34
2019-03-31T16:14:25.598Z,51.21
2019-03-31T16:16:55.970Z,50.57
2019-03-31T16:19:29.221Z,50.79
2019-03-31T16:21:59.566Z,50.80
2019-03-31T16:24:39.934Z,50.94
2019-03-31T16:27:10.324Z,50.98
2019-03-31T16:29:40.801Z,50.25
2019-03-31T16:32:11.127Z,49.67
2019-03-31T16:34:41.540Z,49.76
2019-03-31T16:37:12.210Z,49.72
2019-03-31T16:39:42.870Z,49.98
2019-03-31T16:42:13.230Z,50.37
2019-03-31T16:44:57.118Z,50.76
2019-03-31T16:47:16.884Z,51.07
2019-03-31T16:49:47.211Z,51.08
2019-03-31T16:52:18.299Z,51.05
2019-03-31T16:54:48.720Z,51.17
2019-03-31T16:57:20.241Z,51.05
2019-03-31T16:59:53.192Z,50.92
2019-03-31T17:02:23.543Z,51.03
2019-03-31T17:04:55.317Z,51.22
2019-03-31T17:07:25.769Z,51.32
2019-03-31T17:09:56.474Z,51.21
2019-03-31T17:12:27.149Z,51.46
2019-03-31T17:14:58.598Z,51.28
2019-03-31T17:17:29.255Z,50.83
2019-03-31T17:20:00.979Z,51.04
2019-03-31T17:22:31.664Z,50.60
2019-03-31T17:25:02.029Z,50.51
2019-03-31T17:27:32.646Z,50.69
2019-03-31T17:30:03.191Z,50.57
2019-03-31T17:32:34.030Z,50.27
2019-03-31T17:35:04.615Z,50.25
2019-03-31T17:37:35.012Z,50.44
2019-03-31T17:40:07.312Z,50.85
2019-03-31T17:42:39.293Z,50.92
2019-03-31T17:45:10.812Z,51.13
2019-03-31T17:47:41.182Z,51.48
2019-03-31T17:50:11.846Z,51.55
2019-03-31T17:52:42.170Z,51.53
2019-03-31T17:55:12.831Z,51.86
2019-03-31T17:57:43.238Z,52.44
2019-03-31T18:00:14.666Z,52.22
2019-03-31T18:02:45.106Z,52.11
2019-03-31T18:05:15.730Z,52.36
2019-03-31T18:07:46.555Z,52.34
2019-03-31T18:10:21.148Z,52.58
2019-03-31T18:12:51.827Z,52.85
2019-03-31T18:15:22.154Z,52.64
2019-03-31T18:17:54.696Z,52.98
2019-03-31T18:20:25.015Z,52.56
2019-03-31T18:22:56.494Z,51.81
2019-03-31T18:25:27.094Z,51.50
2019-03-31T18:27:57.855Z,51.49
2019-03-31T18:30:28.522Z,51.33
2019-03-31T18:32:58.901Z,51.07
2019-03-31T18:35:30.764Z,51.22
2019-03-31T18:38:01.262Z,51.33
2019-03-31T18:40:35.191Z,51.35
2019-03-31T18:43:04.704Z,50.93
2019-03-31T18:45:38.136Z,51.33
2019-03-31T18:48:08.611Z,51.64
2019-03-31T18:50:40.191Z,51.66
2019-03-31T18:53:12.479Z,51.66
2019-03-31T18:56:07.372Z,52.23
2019-03-31T18:59:02.055Z,52.45
2019-03-31T19:02:03.928Z,52.59
2019-03-31T19:04:56.405Z,52.48
2019-03-31T19:08:02.581Z,52.32
2019-03-31T19:11:08.775Z,52.34
2019-03-31T19:14:15.197Z,52.37
2019-03-31T19:16:56.167Z,52.35
2019-03-31T19:20:05.640Z,51.58
2019-03-31T19:22:50.949Z,51.48
2019-03-31T19:25:47.033Z,51.32
2019-03-31T19:28:53.067Z,50.78
2019-03-31T19:31:49.057Z,50.86
2019-03-31T19:34:41.234Z,50.48
2019-03-31T19:37:29.447Z,50.07
2019-03-31T19:40:17.972Z,49.95
2019-03-31T19:43:25.759Z,50.07
2019-03-31T19:46:18.061Z,49.62
2019-03-31T19:49:23.188Z,49.74
2019-03-31T19:52:12.218Z,49.72
2019-03-31T19:55:04.553Z,50.06
2019-03-31T19:57:52.463Z,49.81
2019-03-31T20:00:41.712Z,49.29
2019-03-31T20:03:30.000Z,49.30
2019-03-31T20:06:18.198Z,49.20
2019-03-31T20:08:57.372Z,48.99
2019-03-31T20:12:03.759Z,49.28
2019-03-31T20:14:54.247Z,49.74
2019-03-31T20:17:31.037Z,50.20
2019-03-31T20:20:19.358Z,49.40
2019-03-31T20:23:07.859Z,49.31
2019-03-31T20:25:51.347Z,49.60
2019-03-31T20:28:40.586Z,49.42
2019-03-31T20:31:18.614Z,49.31
2019-03-31T20:34:20.438Z,49.23
2019-03-31T20:37:12.550Z,49.34
2019-03-31T20:40:02.105Z,49.47
2019-03-31T20:42:40.697Z,49.17
2019-03-31T20:45:12.699Z,49.52
2019-03-31T20:47:43.023Z,49.42
2019-03-31T20:50:15.420Z,49.76
2019-03-31T20:52:45.794Z,50.54
2019-03-31T20:55:17.032Z,51.04
2019-03-31T20:57:47.726Z,51.50
2019-03-31T21:00:18.262Z,51.94
2019-03-31T21:02:48.746Z,52.42
2019-03-31T21:05:19.093Z,52.43
2019-03-31T21:07:51.563Z,52.39
2019-03-31T21:10:21.989Z,52.72
2019-03-31T21:12:52.403Z,52.79
2019-03-31T21:15:23.055Z,52.53
2019-03-31T21:17:53.381Z,52.37
2019-03-31T21:20:23.709Z,52.65
2019-03-31T21:22:54.439Z,53.11
2019-03-31T21:25:24.756Z,53.75
2019-03-31T21:27:55.149Z,54.07
2019-03-31T21:30:31.822Z,54.58
2019-03-31T21:33:03.754Z,54.61
2019-03-31T21:35:34.157Z,54.75
2019-03-31T21:38:11.437Z,54.49
2019-03-31T21:40:42.804Z,54.55
2019-03-31T21:43:15.904Z,55.07
2019-03-31T21:45:47.440Z,55.65
2019-03-31T21:48:22.510Z,56.26
2019-03-31T21:50:54.408Z,56.39
2019-03-31T21:53:25.088Z,55.52
2019-03-31T21:55:55.503Z,55.96
2019-03-31T21:58:26.149Z,56.31
2019-03-31T22:01:01.115Z,56.36
2019-03-31T22:03:31.745Z,55.27
2019-03-31T22:06:02.259Z,55.27
2019-03-31T22:08:32.906Z,53.29
2019-03-31T22:11:03.611Z,51.85
2019-03-31T22:13:33.977Z,51.34
2019-03-31T22:16:04.504Z,51.25
2019-03-31T22:18:34.986Z,51.52
2019-03-31T22:21:05.596Z,51.25
2019-03-31T22:23:36.086Z,51.66
2019-03-31T22:26:06.491Z,51.76
2019-03-31T22:28:36.916Z,52.00
2019-03-31T22:31:07.909Z,52.00
2019-03-31T22:33:38.569Z,51.94
2019-03-31T22:36:25.029Z,52.52
2019-03-31T22:38:55.631Z,53.31
2019-03-31T22:41:26.196Z,53.59
2019-03-31T22:43:56.603Z,53.43
2019-03-31T22:46:27.240Z,53.47
2019-03-31T22:48:58.122Z,53.78
2019-03-31T22:51:28.812Z,53.33
2019-03-31T22:54:02.024Z,53.45
2019-03-31T22:56:32.306Z,53.60
2019-03-31T22:59:02.771Z,53.89
2019-03-31T23:01:33.122Z,54.06
2019-03-31T23:04:03.529Z,54.52
2019-03-31T23:06:34.006Z,54.73
2019-03-31T23:09:05.933Z,54.98
2019-03-31T23:11:36.259Z,55.25
2019-03-31T23:14:06.590Z,55.27
2019-03-31T23:16:37.118Z,55.94
2019-03-31T23:19:09.075Z,55.94
2019-03-31T23:21:39.317Z,56.30
2019-03-31T23:24:09.714Z,56.24
2019-03-31T23:26:40.029Z,56.21
2019-03-31T23:29:10.369Z,56.02
2019-03-31T23:31:40.863Z,56.19
2019-03-31T23:34:12.163Z,56.17
2019-03-31T23:36:42.471Z,56.48
2019-03-31T23:39:13.094Z,56.56
2019-03-31T23:41:43.381Z,56.59
2019-03-31T23:44:14.542Z,56.42
2019-03-31T23:46:45.167Z,56.73
2019-03-31T23:49:16.777Z,56.85
2019-03-31T23:51:47.150Z,57.13
2019-03-31T23:54:17.709Z,57.14
2019-03-31T23:56:48.055Z,57.10
2019-03-31T23:59:19.945Z,57.43
